Time;durP1;ratioP1;P1;durP2;ratioP2;P2;SDS_P1;SDS_P2;PMS_P1;PMS_P2;Temp;Humidity;BMP_temperature;BMP_pressure;BME280_temperature;BME280_humidity;BME280_pressure;Samples;Min_cycle;Max_cycle;Signal;HPM_P1;HPM_P2
2021/12/21 00:00:17;;;;;;;0.40;0.40;;;-2.60;99.90;;;;;;5028052;28;20436;-75
2021/12/21 00:02:45;;;;;;;2.65;2.47;;;-2.60;99.90;;;;;;5031345;28;20043;-75
2021/12/21 00:05:18;;;;;;;0.40;0.40;;;-2.60;99.90;;;;;;5028794;28;20049;-75
2021/12/21 00:07:45;;;;;;;1.35;1.35;;;-2.70;99.90;;;;;;5051270;28;20049;-75
2021/12/21 00:10:11;;;;;;;0.50;0.50;;;-2.70;99.90;;;;;;5031610;28;20033;-75
2021/12/21 00:12:47;;;;;;;0.65;0.65;;;-2.80;99.90;;;;;;5048742;28;20057;-75
2021/12/21 00:15:53;;;;;;;0.75;0.75;;;-2.80;99.90;;;;;;5039383;28;20425;-75
2021/12/21 00:26:07;;;;;;;1.85;1.73;;;-2.70;99.90;;;;;;5082716;28;20055;-75
2021/12/21 00:28:41;;;;;;;0.68;0.68;;;-2.70;99.90;;;;;;5052848;28;20515;-75
2021/12/21 00:31:07;;;;;;;0.80;0.80;;;-2.70;99.90;;;;;;5074040;28;20401;-75
2021/12/21 00:33:33;;;;;;;2.05;1.95;;;-2.70;99.90;;;;;;5054313;28;20052;-75
2021/12/21 00:35:59;;;;;;;0.55;0.55;;;-2.80;99.90;;;;;;5034986;28;20133;-75
2021/12/21 00:38:25;;;;;;;0.50;0.50;;;-2.80;99.90;;;;;;5052707;28;20052;-75
2021/12/21 00:40:51;;;;;;;0.75;0.75;;;-2.90;99.90;;;;;;5080452;28;20045;-75
2021/12/21 00:43:16;;;;;;;0.45;0.45;;;-2.80;99.90;;;;;;5035723;28;20048;-75
2021/12/21 00:45:42;;;;;;;1.08;1.08;;;-2.80;99.90;;;;;;5051890;28;20045;-75
2021/12/21 00:48:08;;;;;;;0.85;0.85;;;-2.80;99.90;;;;;;5054172;28;20036;-75
2021/12/21 00:50:34;;;;;;;0.60;0.60;;;-2.80;99.90;;;;;;5064677;28;20106;-75
2021/12/21 00:53:00;;;;;;;5.93;5.32;;;-2.90;99.90;;;;;;5035938;28;20134;-75
2021/12/21 00:55:25;;;;;;;2.50;2.40;;;-2.90;99.90;;;;;;5082786;28;20500;-75
2021/12/21 00:57:51;;;;;;;0.40;0.40;;;-2.90;99.90;;;;;;5042784;28;20429;-75
2021/12/21 01:00:21;;;;;;;0.73;0.73;;;-3.00;99.90;;;;;;5088059;28;20066;-75
2021/12/21 01:02:47;;;;;;;0.60;0.60;;;-3.00;99.90;;;;;;5067767;28;20120;-75
2021/12/21 01:05:23;;;;;;;1.17;1.17;;;-3.00;99.90;;;;;;5062270;28;20131;-75
2021/12/21 01:07:52;;;;;;;0.85;0.85;;;-3.10;99.90;;;;;;5051449;28;20052;-75
2021/12/21 01:18:13;;;;;;;0.63;0.63;;;-3.10;99.90;;;;;;5058210;28;20060;-75
2021/12/21 01:20:49;;;;;;;1.67;1.58;;;-3.10;99.90;;;;;;5039746;28;20045;-75
2021/12/21 01:26:02;;;;;;;0.50;0.50;;;-3.10;99.90;;;;;;5084464;28;20048;-75
2021/12/21 01:28:44;;;;;;;0.52;0.52;;;-3.20;99.90;;;;;;5031371;28;20037;-75
2021/12/21 01:31:28;;;;;;;0.93;0.93;;;-3.20;99.90;;;;;;5036548;28;20067;-75
2021/12/21 01:34:14;;;;;;;1.55;1.45;;;-3.20;99.90;;;;;;5087166;28;20048;-75
2021/12/21 01:36:55;;;;;;;28.35;12.40;;;-3.20;99.90;;;;;;5027497;28;20073;-75
2021/12/21 01:42:03;;;;;;;3.53;2.95;;;-3.30;99.90;;;;;;5053349;28;20071;-75
2021/12/21 01:49:54;;;;;;;1.77;1.73;;;-3.30;99.90;;;;;;5053321;28;20037;-75
2021/12/21 01:52:23;;;;;;;2.30;2.20;;;-3.30;99.90;;;;;;5038046;28;20048;-75
2021/12/21 01:54:49;;;;;;;0.50;0.50;;;-3.30;99.90;;;;;;5050794;28;20033;-75
2021/12/21 01:57:16;;;;;;;1.45;1.45;;;-3.30;99.90;;;;;;5047810;28;20047;-75
2021/12/21 01:59:43;;;;;;;0.70;0.70;;;-3.30;99.90;;;;;;5051427;28;20043;-75
2021/12/21 02:02:12;;;;;;;1.50;1.40;;;-3.30;99.90;;;;;;5092931;28;20389;-75
2021/12/21 02:04:40;;;;;;;1.00;1.00;;;-3.30;99.90;;;;;;5034645;28;20041;-74
2021/12/21 02:07:09;;;;;;;2.97;2.85;;;-3.30;99.90;;;;;;5078819;28;20108;-76
2021/12/21 02:09:38;;;;;;;0.60;0.60;;;-3.30;99.90;;;;;;5084673;28;20424;-75
2021/12/21 02:12:05;;;;;;;0.73;0.73;;;-3.30;99.90;;;;;;5047183;28;20055;-75
2021/12/21 02:14:31;;;;;;;0.50;0.50;;;-3.30;99.90;;;;;;5033060;28;20468;-75
2021/12/21 02:20:11;;;;;;;0.57;0.57;;;-3.40;99.90;;;;;;5051922;28;20103;-75
2021/12/21 02:22:42;;;;;;;0.70;0.70;;;-3.40;99.90;;;;;;5045649;28;20049;-75
2021/12/21 02:25:39;;;;;;;0.60;0.60;;;-3.40;99.90;;;;;;5039946;28;20045;-75
2021/12/21 02:30:44;;;;;;;0.70;0.70;;;-3.40;99.90;;;;;;5048697;28;20413;-75
2021/12/21 02:33:12;;;;;;;0.50;0.50;;;-3.40;99.90;;;;;;5045796;28;20036;-75
2021/12/21 02:35:38;;;;;;;0.47;0.47;;;-3.50;99.90;;;;;;5036134;28;20435;-74
2021/12/21 02:38:05;;;;;;;1.05;1.05;;;-3.40;99.90;;;;;;5034492;28;20064;-74
2021/12/21 02:40:31;;;;;;;0.43;0.43;;;-3.50;99.90;;;;;;5062611;28;20469;-74
2021/12/21 02:42:57;;;;;;;0.43;0.43;;;-3.50;99.90;;;;;;5045123;28;20079;-74
2021/12/21 02:45:23;;;;;;;0.50;0.50;;;-3.50;99.90;;;;;;5066089;28;21134;-74
2021/12/21 02:47:49;;;;;;;4.45;4.13;;;-3.40;99.90;;;;;;5034225;28;20045;-75
2021/12/21 02:50:15;;;;;;;0.50;0.50;;;-3.40;99.90;;;;;;5048778;28;20426;-74
2021/12/21 02:52:41;;;;;;;0.57;0.57;;;-3.50;99.90;;;;;;5050626;28;20048;-74
2021/12/21 02:55:08;;;;;;;0.65;0.65;;;-3.40;99.90;;;;;;5045853;28;20045;-75
2021/12/21 02:57:33;;;;;;;0.40;0.40;;;-3.40;99.90;;;;;;5082456;28;20071;-74
2021/12/21 03:00:01;;;;;;;1.20;1.20;;;-3.40;99.90;;;;;;5048896;28;20045;-75
2021/12/21 03:02:29;;;;;;;1.15;1.15;;;-3.40;99.90;;;;;;5039394;28;20378;-74
2021/12/21 03:04:56;;;;;;;0.50;0.50;;;-3.40;99.90;;;;;;5082771;28;20072;-74
2021/12/21 03:10:09;;;;;;;0.60;0.60;;;-3.50;99.90;;;;;;5049817;28;20067;-74
2021/12/21 03:15:22;;;;;;;0.55;0.55;;;-3.50;99.90;;;;;;5056244;28;20048;-74
2021/12/21 03:17:50;;;;;;;0.82;0.82;;;-3.50;99.90;;;;;;5065489;28;20037;-75
2021/12/21 03:20:16;;;;;;;0.40;0.40;;;-3.50;99.90;;;;;;5046517;28;20041;-74
2021/12/21 03:22:42;;;;;;;0.60;0.60;;;-3.60;99.90;;;;;;5039923;28;20098;-74
2021/12/21 03:25:09;;;;;;;0.60;0.60;;;-3.60;99.90;;;;;;5032171;28;20459;-74
2021/12/21 03:27:35;;;;;;;1.65;1.60;;;-3.50;99.90;;;;;;5050265;28;20106;-74
2021/12/21 03:30:01;;;;;;;0.90;0.90;;;-3.50;99.90;;;;;;5031797;28;20033;-74
2021/12/21 03:32:27;;;;;;;0.43;0.43;;;-3.50;99.90;;;;;;5082434;28;20390;-74
2021/12/21 03:34:53;;;;;;;0.82;0.82;;;-3.50;99.90;;;;;;5048461;28;20107;-74
2021/12/21 03:37:18;;;;;;;4.47;4.05;;;-3.50;99.90;;;;;;5050777;28;20041;-74
2021/12/21 03:39:45;;;;;;;0.98;0.98;;;-3.50;99.90;;;;;;5035112;28;20098;-74
2021/12/21 03:42:14;;;;;;;1.08;1.02;;;-3.50;99.90;;;;;;5035010;28;20041;-74
2021/12/21 03:44:40;;;;;;;0.63;0.63;;;-3.50;99.90;;;;;;5041367;28;20562;-74
2021/12/21 03:47:09;;;;;;;0.52;0.52;;;-3.50;99.90;;;;;;5037070;28;20095;-74
2021/12/21 03:52:17;;;;;;;1.00;1.00;;;-3.50;99.90;;;;;;5046891;28;20412;-74
2021/12/21 03:54:46;;;;;;;3.85;3.63;;;-3.60;99.90;;;;;;5053380;28;20417;-75
2021/12/21 03:57:13;;;;;;;0.90;0.90;;;-3.60;99.90;;;;;;5067810;28;20043;-74
2021/12/21 03:59:41;;;;;;;0.70;0.70;;;-3.70;99.90;;;;;;5077012;28;20044;-74
2021/12/21 04:02:08;;;;;;;0.95;0.82;;;-3.60;99.90;;;;;;5031365;28;20401;-74
2021/12/21 04:04:34;;;;;;;2.35;2.25;;;-3.70;99.90;;;;;;5044784;28;20550;-74
2021/12/21 04:07:00;;;;;;;2.50;2.38;;;-3.60;99.90;;;;;;5066873;28;20040;-74
2021/12/21 04:09:26;;;;;;;0.60;0.60;;;-3.60;99.90;;;;;;5053006;28;20044;-74
2021/12/21 04:11:52;;;;;;;1.10;1.10;;;-3.60;99.90;;;;;;5051921;28;20037;-74
2021/12/21 04:14:18;;;;;;;0.88;0.88;;;-3.70;99.90;;;;;;5055598;28;20044;-74
2021/12/21 04:16:44;;;;;;;0.60;0.60;;;-3.70;99.90;;;;;;5050651;28;20068;-74
2021/12/21 04:19:12;;;;;;;1.50;1.40;;;-3.70;99.90;;;;;;5052650;28;20392;-74
2021/12/21 04:21:38;;;;;;;0.50;0.50;;;-3.80;99.90;;;;;;5089032;28;20045;-74
2021/12/21 04:24:04;;;;;;;0.50;0.50;;;-3.80;99.90;;;;;;5035618;28;20404;-74
2021/12/21 04:26:29;;;;;;;0.50;0.50;;;-3.80;99.90;;;;;;5060512;28;20121;-74
2021/12/21 04:28:55;;;;;;;0.50;0.50;;;-3.80;99.90;;;;;;5055301;28;20125;-74
2021/12/21 04:31:21;;;;;;;0.50;0.50;;;-3.90;99.90;;;;;;5044028;28;20101;-73
2021/12/21 04:33:47;;;;;;;0.50;0.50;;;-3.90;99.90;;;;;;5051710;28;20132;-73
2021/12/21 04:36:13;;;;;;;0.45;0.45;;;-3.90;99.90;;;;;;5031018;28;20131;-74
2021/12/21 04:38:43;;;;;;;0.50;0.50;;;-3.90;99.90;;;;;;5051404;28;20063;-74
2021/12/21 04:41:16;;;;;;;1.67;1.67;;;-3.90;99.90;;;;;;5055602;28;20086;-74
2021/12/21 04:43:43;;;;;;;0.50;0.50;;;-3.90;99.90;;;;;;5058633;28;20056;-73
2021/12/21 04:46:10;;;;;;;0.50;0.50;;;-3.90;99.90;;;;;;5046526;28;20080;-73
2021/12/21 04:48:37;;;;;;;0.50;0.50;;;-3.90;99.90;;;;;;5034144;28;20040;-73
2021/12/21 04:51:03;;;;;;;5.90;3.83;;;-3.80;99.90;;;;;;5057083;28;20090;-73
2021/12/21 04:53:29;;;;;;;0.50;0.50;;;-3.90;99.90;;;;;;5033370;28;20379;-73
2021/12/21 04:55:55;;;;;;;0.50;0.50;;;-3.90;99.90;;;;;;5087967;28;20085;-73
2021/12/21 04:58:21;;;;;;;4.72;4.43;;;-3.90;99.90;;;;;;5045724;28;20508;-73
2021/12/21 05:00:48;;;;;;;14.80;6.97;;;-3.90;99.90;;;;;;5087126;28;20041;-73
2021/12/21 05:03:14;;;;;;;3.15;3.03;;;-3.90;99.90;;;;;;5040889;28;20049;-73
2021/12/21 05:05:40;;;;;;;0.40;0.40;;;-4.00;99.90;;;;;;5085504;28;20060;-73
2021/12/21 05:10:44;;;;;;;0.63;0.63;;;-4.00;99.90;;;;;;5051464;28;20179;-73
2021/12/21 05:13:10;;;;;;;1.15;1.13;;;-4.00;99.90;;;;;;5053288;28;20081;-74
2021/12/21 05:15:36;;;;;;;1.10;1.10;;;-4.00;99.90;;;;;;5090032;28;20040;-74
2021/12/21 05:18:01;;;;;;;0.50;0.50;;;-4.10;99.90;;;;;;5051366;28;20037;-73
2021/12/21 05:20:27;;;;;;;1.00;1.00;;;-4.10;99.90;;;;;;5084626;28;20572;-74
2021/12/21 05:22:53;;;;;;;2.60;2.33;;;-4.00;99.90;;;;;;5034697;28;20047;-73
2021/12/21 05:25:19;;;;;;;0.50;0.50;;;-4.10;99.90;;;;;;5054167;28;20059;-73
2021/12/21 05:27:45;;;;;;;0.50;0.50;;;-4.10;99.90;;;;;;5052698;28;20077;-73
2021/12/21 05:30:12;;;;;;;0.60;0.60;;;-4.10;99.90;;;;;;5055604;28;20105;-73
2021/12/21 05:32:38;;;;;;;0.55;0.55;;;-4.10;99.90;;;;;;5051841;28;20037;-73
2021/12/21 05:35:05;;;;;;;0.50;0.50;;;-4.10;99.90;;;;;;5059334;28;20377;-74
2021/12/21 05:37:30;;;;;;;0.60;0.60;;;-4.10;99.90;;;;;;5056363;28;20073;-73
2021/12/21 05:40:02;;;;;;;0.50;0.50;;;-4.10;99.90;;;;;;5057298;28;20051;-73
2021/12/21 05:42:27;;;;;;;0.50;0.50;;;-4.00;99.90;;;;;;5053588;28;20057;-73
2021/12/21 05:44:53;;;;;;;0.57;0.57;;;-4.00;99.90;;;;;;5060792;28;20040;-73
2021/12/21 05:47:20;;;;;;;4.57;4.22;;;-4.00;99.90;;;;;;5037445;28;20041;-73
2021/12/21 05:49:46;;;;;;;0.60;0.60;;;-4.00;99.90;;;;;;5035448;28;20762;-73
2021/12/21 05:52:12;;;;;;;1.25;1.25;;;-4.00;99.90;;;;;;5070305;28;20051;-73
2021/12/21 05:54:38;;;;;;;0.60;0.60;;;-4.00;99.90;;;;;;5036365;28;20122;-73
2021/12/21 05:57:04;;;;;;;0.50;0.50;;;-4.00;99.90;;;;;;5065255;28;20036;-73
2021/12/21 05:59:29;;;;;;;0.50;0.50;;;-4.00;99.90;;;;;;5048421;28;20064;-73
2021/12/21 06:01:55;;;;;;;0.50;0.50;;;-4.00;99.90;;;;;;5052702;28;20493;-73
2021/12/21 06:04:21;;;;;;;0.47;0.47;;;-4.00;99.90;;;;;;5046315;28;20562;-73
2021/12/21 06:06:47;;;;;;;0.40;0.40;;;-4.00;99.90;;;;;;5048444;28;20036;-73
2021/12/21 06:09:14;;;;;;;0.80;0.80;;;-4.00;99.90;;;;;;5083398;28;20037;-73
2021/12/21 06:11:51;;;;;;;7.20;3.80;;;-3.90;99.90;;;;;;5033530;28;20043;-73
2021/12/21 06:15:09;;;;;;;0.50;0.50;;;-3.90;99.90;;;;;;5033757;28;20412;-73
2021/12/21 06:27:48;;;;;;;0.50;0.50;;;-4.00;99.90;;;;;;5049389;28;20094;-73
2021/12/21 06:30:14;;;;;;;0.50;0.50;;;-4.00;99.90;;;;;;5024389;28;20075;-73
2021/12/21 06:32:40;;;;;;;0.60;0.60;;;-4.10;99.90;;;;;;5044360;28;20131;-73
2021/12/21 06:35:07;;;;;;;0.90;0.90;;;-4.10;99.90;;;;;;5048470;28;20052;-73
2021/12/21 06:37:33;;;;;;;1.67;1.58;;;-4.10;99.90;;;;;;5046788;28;20049;-73
2021/12/21 06:39:59;;;;;;;0.95;0.95;;;-4.10;99.90;;;;;;5041570;28;20041;-73
2021/12/21 06:42:27;;;;;;;0.70;0.70;;;-4.20;99.90;;;;;;5049146;28;20037;-73
2021/12/21 06:44:57;;;;;;;0.52;0.52;;;-4.20;99.90;;;;;;5023847;28;20415;-73
2021/12/21 06:52:52;;;;;;;0.50;0.50;;;-4.30;99.90;;;;;;5038415;28;20541;-73
2021/12/21 06:55:18;;;;;;;0.50;0.50;;;-4.30;99.90;;;;;;5080825;28;20120;-73
2021/12/21 06:57:44;;;;;;;0.70;0.70;;;-4.30;99.90;;;;;;5031810;28;20041;-75
2021/12/21 07:00:15;;;;;;;0.50;0.50;;;-4.30;99.90;;;;;;5058516;28;20044;-73
2021/12/21 07:02:42;;;;;;;0.50;0.50;;;-4.30;99.90;;;;;;5050864;28;20048;-73
2021/12/21 07:05:09;;;;;;;0.50;0.50;;;-4.30;99.90;;;;;;5048052;28;20037;-73
2021/12/21 07:07:36;;;;;;;3.70;2.25;;;-4.40;99.90;;;;;;5061819;28;20052;-73
2021/12/21 07:10:07;;;;;;;0.50;0.50;;;-4.30;99.90;;;;;;5032839;28;20579;-73
2021/12/21 07:20:27;;;;;;;0.40;0.40;;;-4.30;99.90;;;;;;5074727;28;20041;-73
2021/12/21 07:22:53;;;;;;;0.50;0.50;;;-4.40;99.90;;;;;;5058732;28;20052;-73
2021/12/21 07:25:19;;;;;;;0.55;0.55;;;-4.40;99.90;;;;;;5057783;28;20071;-73
2021/12/21 07:27:44;;;;;;;0.45;0.45;;;-4.40;99.90;;;;;;5054490;28;20040;-73
2021/12/21 07:30:11;;;;;;;0.70;0.70;;;-4.40;99.90;;;;;;5052547;28;20124;-73
2021/12/21 07:32:37;;;;;;;0.88;0.88;;;-4.40;99.90;;;;;;5077555;28;20642;-73
2021/12/21 07:35:03;;;;;;;0.50;0.50;;;-4.30;99.90;;;;;;5049064;28;20130;-73
2021/12/21 07:37:28;;;;;;;1.15;1.05;;;-4.30;99.90;;;;;;5058136;28;20043;-73
2021/12/21 07:39:55;;;;;;;0.60;0.60;;;-4.40;99.90;;;;;;5035392;28;20040;-73
2021/12/21 07:42:21;;;;;;;0.80;0.80;;;-4.30;99.90;;;;;;5029634;28;20069;-73
2021/12/21 07:44:48;;;;;;;4.55;4.10;;;-4.30;99.90;;;;;;5054366;28;20240;-73
2021/12/21 07:47:14;;;;;;;0.50;0.50;;;-4.20;99.90;;;;;;5041271;28;20041;-73
2021/12/21 07:49:40;;;;;;;0.57;0.57;;;-4.30;99.90;;;;;;5058521;28;20047;-73
2021/12/21 07:52:07;;;;;;;1.05;1.05;;;-4.30;99.90;;;;;;5043921;28;20446;-73
2021/12/21 07:54:34;;;;;;;0.60;0.60;;;-4.30;99.90;;;;;;5038078;28;20059;-73
2021/12/21 07:56:59;;;;;;;0.47;0.47;;;-4.30;99.90;;;;;;5037579;28;20489;-73
2021/12/21 07:59:25;;;;;;;0.50;0.50;;;-4.30;99.90;;;;;;5062832;28;20050;-73
2021/12/21 08:01:52;;;;;;;0.60;0.60;;;-4.30;99.90;;;;;;5058458;28;20044;-73
2021/12/21 08:04:21;;;;;;;3.13;2.92;;;-4.30;99.90;;;;;;5054628;28;20037;-73
2021/12/21 08:06:49;;;;;;;0.50;0.50;;;-4.20;99.90;;;;;;5056028;28;20043;-73
2021/12/21 08:09:15;;;;;;;0.50;0.50;;;-4.20;99.90;;;;;;5050190;28;20049;-73
2021/12/21 08:14:08;;;;;;;0.90;0.90;;;-4.10;99.90;;;;;;5051682;28;20041;-73
2021/12/21 08:16:34;;;;;;;0.60;0.60;;;-4.10;99.90;;;;;;5046626;28;20514;-73
2021/12/21 08:18:59;;;;;;;0.50;0.50;;;-4.10;99.90;;;;;;5071154;28;20142;-75
2021/12/21 08:21:26;;;;;;;2.08;1.98;;;-4.10;99.90;;;;;;5042105;28;20043;-73
2021/12/21 08:23:52;;;;;;;3.05;2.72;;;-4.00;99.90;;;;;;5025419;28;20595;-74
2021/12/21 08:26:19;;;;;;;0.70;0.70;;;-3.90;99.90;;;;;;5045689;28;21886;-74
2021/12/21 08:28:45;;;;;;;3.60;2.85;;;-3.60;99.90;;;;;;5044985;28;20049;-73
2021/12/21 08:31:12;;;;;;;1.48;1.48;;;-3.40;99.90;;;;;;5031560;28;20044;-74
2021/12/21 08:33:39;;;;;;;0.93;0.93;;;-3.10;99.90;;;;;;5033318;28;20468;-74
2021/12/21 08:36:10;;;;;;;0.50;0.50;;;-2.90;99.90;;;;;;5036433;28;20048;-74
2021/12/21 08:38:39;;;;;;;0.73;0.73;;;-2.60;99.90;;;;;;5055136;28;20505;-74
2021/12/21 08:41:06;;;;;;;0.68;0.68;;;-2.40;99.90;;;;;;5055522;28;20405;-74
2021/12/21 08:43:33;;;;;;;1.20;1.17;;;-2.10;99.90;;;;;;5055560;28;20497;-74
2021/12/21 08:45:59;;;;;;;4.93;2.13;;;-1.70;99.90;;;;;;5056224;28;20044;-74
2021/12/21 08:48:27;;;;;;;3.40;1.67;;;-1.20;99.90;;;;;;5043408;28;20041;-75
2021/12/21 08:50:55;;;;;;;0.50;0.50;;;-0.80;99.90;;;;;;5028672;28;20045;-74
2021/12/21 08:53:24;;;;;;;2.90;2.63;;;-0.40;99.90;;;;;;5030892;28;20045;-75
2021/12/21 08:55:51;;;;;;;0.63;0.63;;;0.00;99.90;;;;;;5034402;28;20091;-74
2021/12/21 08:58:18;;;;;;;0.70;0.70;;;0.40;99.90;;;;;;5063370;28;20079;-75
2021/12/21 09:00:44;;;;;;;0.50;0.50;;;0.70;99.90;;;;;;5023296;28;20044;-75
2021/12/21 09:03:11;;;;;;;0.70;0.70;;;1.00;99.90;;;;;;5032013;28;20061;-75
2021/12/21 09:05:38;;;;;;;0.40;0.40;;;1.20;99.90;;;;;;5033106;28;20056;-75
2021/12/21 09:08:05;;;;;;;0.40;0.40;;;1.40;99.90;;;;;;5071578;28;20048;-75
2021/12/21 09:10:32;;;;;;;1.60;1.50;;;1.60;99.90;;;;;;5052046;28;20094;-75
2021/12/21 09:12:58;;;;;;;1.35;1.25;;;1.70;99.90;;;;;;5029037;28;20087;-76
2021/12/21 09:15:26;;;;;;;2.40;2.05;;;1.90;99.90;;;;;;5066192;28;20366;-76
2021/12/21 09:17:52;;;;;;;0.65;0.65;;;2.00;99.90;;;;;;5052873;28;20115;-76
2021/12/21 09:20:23;;;;;;;0.95;0.95;;;2.10;99.90;;;;;;5036687;28;20053;-76
2021/12/21 09:22:50;;;;;;;1.02;1.02;;;2.20;99.90;;;;;;5050244;28;20055;-76
2021/12/21 09:25:18;;;;;;;1.13;1.08;;;2.30;99.90;;;;;;5062308;28;20044;-76
2021/12/21 09:27:44;;;;;;;0.73;0.73;;;2.30;99.90;;;;;;5056820;28;20041;-76
2021/12/21 09:30:13;;;;;;;1.38;1.27;;;2.30;99.90;;;;;;5044470;28;20440;-76
2021/12/21 09:32:40;;;;;;;0.60;0.60;;;2.20;99.90;;;;;;5049263;28;20041;-76
2021/12/21 09:35:06;;;;;;;1.42;1.33;;;2.30;99.90;;;;;;5052141;28;20040;-76
2021/12/21 09:37:32;;;;;;;0.30;0.30;;;2.40;99.90;;;;;;5034037;28;20470;-76
2021/12/21 09:39:59;;;;;;;9.40;3.20;;;2.40;99.90;;;;;;5032923;28;20044;-76
2021/12/21 09:42:31;;;;;;;2.17;2.00;;;2.60;99.90;;;;;;5055797;28;20127;-76
2021/12/21 09:44:58;;;;;;;0.73;0.73;;;2.70;99.90;;;;;;5031661;28;20107;-76
2021/12/21 09:47:24;;;;;;;2.10;2.00;;;2.70;99.90;;;;;;5083219;28;20119;-76
2021/12/21 09:49:50;;;;;;;1.23;1.17;;;2.80;99.90;;;;;;5051393;28;20049;-76
2021/12/21 09:52:23;;;;;;;7.68;2.97;;;2.80;99.90;;;;;;5031344;28;20036;-76
2021/12/21 09:54:49;;;;;;;4.53;3.30;;;2.70;99.90;;;;;;5083323;28;20041;-76
2021/12/21 09:57:17;;;;;;;1.77;1.67;;;2.60;99.90;;;;;;5041306;28;20044;-76
2021/12/21 09:59:46;;;;;;;2.83;2.50;;;2.40;99.90;;;;;;5035387;28;20041;-76
2021/12/21 10:02:12;;;;;;;3.85;2.95;;;2.30;99.90;;;;;;5034544;28;20123;-76
2021/12/21 10:05:06;;;;;;;3.70;2.72;;;2.20;99.90;;;;;;5034224;28;20075;-76
2021/12/21 10:07:34;;;;;;;0.75;0.70;;;2.10;99.90;;;;;;5043611;28;20106;-76
2021/12/21 10:10:11;;;;;;;7.15;4.38;;;2.10;99.90;;;;;;5037370;28;20500;-76
2021/12/21 10:12:42;;;;;;;1.02;1.02;;;2.20;99.90;;;;;;5026795;28;20046;-76
2021/12/21 10:15:21;;;;;;;1.00;1.00;;;2.30;99.90;;;;;;5054976;28;20630;-76
2021/12/21 10:17:51;;;;;;;2.05;1.85;;;2.40;99.90;;;;;;5030926;28;20049;-76
2021/12/21 10:20:45;;;;;;;2.38;2.13;;;2.50;99.90;;;;;;5044283;28;20048;-76
2021/12/21 10:23:29;;;;;;;4.28;2.38;;;2.60;99.90;;;;;;5046474;28;20048;-76
2021/12/21 10:26:00;;;;;;;3.88;2.80;;;2.60;99.90;;;;;;5025654;28;20048;-76
2021/12/21 10:28:34;;;;;;;5.25;2.53;;;2.60;99.90;;;;;;5045314;28;20103;-76
2021/12/21 10:31:12;;;;;;;0.43;0.43;;;2.70;99.90;;;;;;5041207;28;20049;-76
2021/12/21 10:33:42;;;;;;;0.57;0.57;;;2.80;99.90;;;;;;5035085;28;20752;-76
2021/12/21 10:36:09;;;;;;;6.65;3.80;;;2.90;99.90;;;;;;5052780;28;20401;-76
2021/12/21 10:38:36;;;;;;;1.75;1.65;;;3.00;99.90;;;;;;5031969;28;20420;-76
2021/12/21 10:41:32;;;;;;;1.90;1.80;;;3.10;99.90;;;;;;5040377;28;20532;-76
2021/12/21 10:44:03;;;;;;;3.15;1.52;;;3.20;99.90;;;;;;5026527;28;20055;-76
2021/12/21 10:46:35;;;;;;;0.57;0.57;;;3.30;99.90;;;;;;5051380;28;20430;-76
2021/12/21 10:49:10;;;;;;;0.63;0.63;;;3.40;99.90;;;;;;5048053;28;20111;-76
2021/12/21 10:51:37;;;;;;;0.85;0.82;;;3.60;99.90;;;;;;5029867;28;20103;-75
2021/12/21 10:54:03;;;;;;;0.60;0.60;;;3.70;99.90;;;;;;5047449;28;20564;-75
2021/12/21 10:56:29;;;;;;;0.77;0.77;;;3.80;99.90;;;;;;5034055;28;20033;-75
2021/12/21 10:58:54;;;;;;;1.38;1.27;;;3.90;99.90;;;;;;5052000;28;20087;-76
2021/12/21 11:01:27;;;;;;;0.82;0.82;;;4.00;99.90;;;;;;5056299;28;20568;-76
2021/12/21 11:03:55;;;;;;;0.98;0.65;;;4.10;99.90;;;;;;5038976;28;20043;-75
2021/12/21 11:06:29;;;;;;;2.53;2.33;;;4.20;99.90;;;;;;5042064;28;20106;-75
2021/12/21 11:08:57;;;;;;;1.02;1.00;;;4.20;99.90;;;;;;5040991;28;20045;-76
2021/12/21 11:11:36;;;;;;;0.40;0.40;;;4.20;99.90;;;;;;5051971;28;20107;-76
2021/12/21 11:14:08;;;;;;;2.65;1.10;;;4.10;99.90;;;;;;5058457;28;20045;-75
2021/12/21 11:16:51;;;;;;;2.58;2.25;;;4.20;99.90;;;;;;5030935;28;20080;-75
2021/12/21 11:19:23;;;;;;;16.75;2.75;;;4.20;99.90;;;;;;5061668;28;20489;-76
2021/12/21 11:21:49;;;;;;;1.77;1.67;;;4.30;99.90;;;;;;5051142;28;20111;-76
2021/12/21 11:24:19;;;;;;;2.65;2.40;;;4.40;99.90;;;;;;5050228;28;20045;-76
2021/12/21 11:26:48;;;;;;;10.73;4.10;;;4.40;99.90;;;;;;5051997;28;20719;-76
2021/12/21 11:29:17;;;;;;;5.80;1.90;;;4.50;99.90;;;;;;5040564;28;20469;-76
2021/12/21 11:31:47;;;;;;;0.80;0.80;;;4.60;99.90;;;;;;5039493;28;20041;-76
2021/12/21 11:34:19;;;;;;;1.27;1.17;;;4.70;99.90;;;;;;5060549;28;20071;-77
2021/12/21 11:39:36;;;;;;;1.73;1.33;;;4.80;99.90;;;;;;5037707;28;20116;-77
2021/12/21 11:42:04;;;;;;;0.30;0.30;;;4.80;99.90;;;;;;5032748;28;20051;-77
2021/12/21 11:44:36;;;;;;;1.63;1.52;;;4.80;99.90;;;;;;5032224;28;20049;-77
2021/12/21 11:47:02;;;;;;;0.63;0.60;;;4.90;99.90;;;;;;5039520;28;20428;-77
2021/12/21 11:49:43;;;;;;;2.42;1.27;;;5.00;99.90;;;;;;5031990;28;20041;-77
2021/12/21 11:52:13;;;;;;;16.45;6.22;;;5.10;99.90;;;;;;5030268;28;20131;-77
2021/12/21 11:54:52;;;;;;;2.10;1.80;;;5.20;99.90;;;;;;5033801;28;20044;-77
2021/12/21 11:57:21;;;;;;;1.52;1.33;;;5.20;99.90;;;;;;5049500;28;20045;-78
2021/12/21 11:59:49;;;;;;;1.73;1.63;;;5.20;99.90;;;;;;5042828;28;20041;-77
2021/12/21 12:02:26;;;;;;;2.90;2.03;;;5.20;99.90;;;;;;5049762;28;20586;-77
2021/12/21 12:04:57;;;;;;;12.32;2.95;;;5.30;99.90;;;;;;5029430;28;20056;-77
2021/12/21 12:07:23;;;;;;;0.85;0.65;;;5.20;99.90;;;;;;5033467;28;20045;-77
2021/12/21 12:10:09;;;;;;;0.43;0.43;;;5.20;99.90;;;;;;5039700;28;20037;-77
2021/12/21 12:12:35;;;;;;;2.38;1.20;;;5.20;99.90;;;;;;5080113;28;20128;-77
2021/12/21 12:15:04;;;;;;;0.88;0.88;;;5.20;99.90;;;;;;5052414;28;20115;-77
2021/12/21 12:17:31;;;;;;;5.55;3.78;;;5.20;99.90;;;;;;5041872;28;20432;-77
2021/12/21 12:20:07;;;;;;;8.65;4.72;;;5.20;99.90;;;;;;5027647;28;20130;-77
2021/12/21 12:22:33;;;;;;;6.65;3.95;;;5.20;99.90;;;;;;5041215;28;20145;-77
2021/12/21 12:24:59;;;;;;;4.15;2.85;;;5.10;99.90;;;;;;5045762;28;20083;-77
2021/12/21 12:27:29;;;;;;;1.55;1.45;;;5.00;99.90;;;;;;5035283;28;20043;-77
2021/12/21 12:29:58;;;;;;;1.65;1.13;;;5.00;99.90;;;;;;5040693;28;20048;-77
2021/12/21 12:32:35;;;;;;;0.50;0.50;;;5.00;99.90;;;;;;5032424;28;20048;-77
2021/12/21 12:35:08;;;;;;;5.28;3.10;;;4.90;99.90;;;;;;5038943;28;20041;-77
2021/12/21 12:37:57;;;;;;;0.88;0.88;;;4.90;99.90;;;;;;5024440;28;20383;-77
2021/12/21 12:40:29;;;;;;;1.65;1.52;;;4.90;99.90;;;;;;5027932;28;20103;-77
2021/12/21 12:42:54;;;;;;;0.77;0.77;;;4.90;99.90;;;;;;5041949;28;20124;-77
2021/12/21 12:45:22;;;;;;;2.38;0.73;;;4.90;99.90;;;;;;5078907;28;20159;-77
2021/12/21 12:47:54;;;;;;;0.82;0.82;;;4.80;99.90;;;;;;5044392;28;20045;-77
2021/12/21 12:50:22;;;;;;;0.40;0.40;;;4.80;99.90;;;;;;5035650;28;20044;-78
2021/12/21 12:52:50;;;;;;;0.40;0.40;;;4.80;99.90;;;;;;5042083;28;20044;-77
2021/12/21 12:55:16;;;;;;;0.60;0.60;;;4.80;99.90;;;;;;5042615;28;20047;-77
2021/12/21 12:57:50;;;;;;;1.67;1.58;;;4.70;99.90;;;;;;5043304;28;20417;-77
2021/12/21 13:00:24;;;;;;;0.73;0.73;;;4.70;99.90;;;;;;5019277;28;20044;-77
2021/12/21 13:03:03;;;;;;;2.85;2.65;;;4.70;99.90;;;;;;5044829;28;20048;-77
2021/12/21 13:05:52;;;;;;;1.40;1.30;;;4.60;99.90;;;;;;5027052;28;20045;-77
2021/12/21 13:08:23;;;;;;;0.50;0.50;;;4.60;99.90;;;;;;5057346;28;20047;-77
2021/12/21 13:10:56;;;;;;;0.63;0.63;;;4.60;99.90;;;;;;5021696;28;20045;-77
2021/12/21 13:13:33;;;;;;;1.23;0.98;;;4.50;99.90;;;;;;5040853;28;20040;-78
2021/12/21 13:16:05;;;;;;;0.80;0.80;;;4.50;99.90;;;;;;5030775;28;20114;-77
2021/12/21 13:18:31;;;;;;;1.02;0.93;;;4.50;99.90;;;;;;5023180;28;20029;-77
2021/12/21 13:20:59;;;;;;;1.95;1.27;;;4.50;99.90;;;;;;5032582;28;20489;-77
2021/12/21 13:23:26;;;;;;;1.88;1.67;;;4.50;99.90;;;;;;5018852;28;20451;-78
2021/12/21 13:26:00;;;;;;;0.40;0.40;;;4.40;99.90;;;;;;5033257;28;20041;-77
2021/12/21 13:28:35;;;;;;;2.25;2.05;;;4.40;99.90;;;;;;5039575;28;20047;-77
2021/12/21 13:31:05;;;;;;;2.13;1.08;;;4.40;99.90;;;;;;5047205;28;20083;-78
2021/12/21 13:33:32;;;;;;;1.90;1.80;;;4.30;99.90;;;;;;5086226;28;20044;-77
2021/12/21 13:36:04;;;;;;;1.00;1.00;;;4.30;99.90;;;;;;5057083;28;20048;-77
2021/12/21 13:38:30;;;;;;;1.25;1.15;;;4.30;99.90;;;;;;5044396;28;20089;-78
2021/12/21 13:41:06;;;;;;;0.55;0.55;;;4.20;99.90;;;;;;5036214;28;20119;-77
2021/12/21 13:43:34;;;;;;;0.68;0.68;;;4.20;99.90;;;;;;5050191;28;20144;-77
2021/12/21 13:46:04;;;;;;;1.23;1.13;;;4.10;99.90;;;;;;5032631;28;20051;-77
2021/12/21 13:48:31;;;;;;;1.15;1.15;;;4.10;99.90;;;;;;5056711;28;20389;-77
2021/12/21 13:51:26;;;;;;;0.30;0.30;;;4.00;99.90;;;;;;5070776;28;20543;-77
2021/12/21 13:53:58;;;;;;;0.63;0.63;;;4.00;99.90;;;;;;5037122;28;20071;-77
2021/12/21 13:56:27;;;;;;;0.50;0.50;;;3.90;99.90;;;;;;5043463;28;20041;-77
2021/12/21 13:58:55;;;;;;;1.38;1.27;;;3.90;99.90;;;;;;5066692;28;20044;-77
2021/12/21 14:01:28;;;;;;;0.45;0.45;;;3.80;99.90;;;;;;5071594;28;20037;-77
2021/12/21 14:04:00;;;;;;;0.93;0.93;;;3.80;99.90;;;;;;5056295;28;20052;-77
2021/12/21 14:06:27;;;;;;;0.50;0.50;;;3.70;99.90;;;;;;5044336;28;20037;-77
2021/12/21 14:08:57;;;;;;;2.60;2.40;;;3.60;99.90;;;;;;5055643;28;20044;-77
2021/12/21 14:11:31;;;;;;;0.77;0.77;;;3.60;99.90;;;;;;5037890;28;20556;-77